createdAt,value
2023-02-01T00:04:09.879Z,82.33
2023-02-01T00:09:10.068Z,82.27
2023-02-01T00:14:09.671Z,83.04
2023-02-01T00:19:10.504Z,82.92
2023-02-01T00:24:12.692Z,84.79
2023-02-01T00:29:13.752Z,84.92
2023-02-01T00:34:15.110Z,83.96
2023-02-01T00:39:15.360Z,83.48
2023-02-01T00:44:14.183Z,83.35
2023-02-01T00:49:13.027Z,82.67
2023-02-01T00:54:11.717Z,83.75
2023-02-01T00:59:13.676Z,84.99
2023-02-01T01:04:13.023Z,85.13
2023-02-01T01:09:11.876Z,85.34
2023-02-01T01:14:13.093Z,85.53
2023-02-01T01:19:12.966Z,84.67
2023-02-01T01:24:11.826Z,84.47
2023-02-01T01:29:12.278Z,83.91
2023-02-01T01:34:11.221Z,83.67
2023-02-01T01:39:10.046Z,82.33
2023-02-01T01:44:47.718Z,83.71
2023-02-01T01:49:48.188Z,82.93
2023-02-01T01:54:51.432Z,82.38
2023-02-01T01:59:55.354Z,81.71
2023-02-01T02:04:55.789Z,81.19
2023-02-01T02:10:00.648Z,80.46
2023-02-01T02:15:00.986Z,80.80
2023-02-01T02:20:39.778Z,80.62
2023-02-01T02:26:14.193Z,81.09
2023-02-01T02:31:42.761Z,80.56
2023-02-01T02:36:54.867Z,80.39
2023-02-01T02:42:21.219Z,80.87
2023-02-01T02:47:28.799Z,81.06
2023-02-01T02:52:47.940Z,80.34
2023-02-01T02:58:05.276Z,80.01
2023-02-01T03:03:23.154Z,79.55
2023-02-01T03:08:24.959Z,79.09
2023-02-01T03:13:33.313Z,79.60
2023-02-01T03:18:39.047Z,80.09
2023-02-01T03:23:40.684Z,80.41
2023-02-01T03:28:45.402Z,80.59
2023-02-01T03:33:44.728Z,80.74
2023-02-01T03:38:54.710Z,83.83
2023-02-01T03:43:58.267Z,85.71
2023-02-01T03:48:58.210Z,87.88
2023-02-01T03:53:59.583Z,87.58
2023-02-01T03:59:01.535Z,87.99
2023-02-01T04:04:06.221Z,89.15
2023-02-01T04:09:07.180Z,87.79
2023-02-01T04:14:06.256Z,88.91
2023-02-01T04:19:05.123Z,88.71
2023-02-01T04:24:04.106Z,88.45
2023-02-01T04:29:04.535Z,86.38
2023-02-01T04:34:03.468Z,89.04
2023-02-01T04:39:02.371Z,88.40
2023-02-01T04:44:01.301Z,86.95
2023-02-01T04:49:01.684Z,86.98
2023-02-01T04:54:00.822Z,86.11
2023-02-01T04:58:59.797Z,86.55
2023-02-01T05:03:58.661Z,86.50
2023-02-01T05:08:58.981Z,87.02
2023-02-01T05:13:59.183Z,87.09
2023-02-01T05:18:58.344Z,88.50
2023-02-01T05:24:15.971Z,87.29
2023-02-01T05:29:15.277Z,88.01
2023-02-01T05:34:14.530Z,88.26
2023-02-01T05:39:15.112Z,89.29
2023-02-01T05:44:14.055Z,88.89
2023-02-01T05:49:13.059Z,88.33
2023-02-01T05:54:12.457Z,89.58
2023-02-01T05:59:13.415Z,89.78
2023-02-01T06:04:12.876Z,88.35
2023-02-01T06:09:11.750Z,87.99
2023-02-01T06:14:10.720Z,87.43
2023-02-01T06:19:12.091Z,86.92
2023-02-01T06:24:11.923Z,87.74
2023-02-01T06:29:12.821Z,87.37
2023-02-01T06:34:13.891Z,86.40
2023-02-01T06:39:16.878Z,85.92
2023-02-01T06:44:15.755Z,85.58
2023-02-01T06:49:16.012Z,85.27
2023-02-01T06:54:15.570Z,86.72
2023-02-01T06:59:16.545Z,86.91
2023-02-01T07:04:18.871Z,85.63
2023-02-01T07:09:17.825Z,84.97
2023-02-01T07:14:17.174Z,84.45
2023-02-01T07:19:17.762Z,84.21
2023-02-01T07:24:16.845Z,84.68
2023-02-01T07:29:15.864Z,84.09
2023-02-01T07:34:14.771Z,83.09
2023-02-01T07:39:15.037Z,83.96
2023-02-01T07:44:13.923Z,84.72
2023-02-01T07:49:14.991Z,84.81
2023-02-01T07:54:15.328Z,85.26
2023-02-01T07:59:17.401Z,85.69
2023-02-01T08:04:16.321Z,85.41
2023-02-01T08:09:19.723Z,86.05
2023-02-01T08:14:19.047Z,86.13
2023-02-01T08:19:17.919Z,85.17
2023-02-01T08:24:46.071Z,86.47
2023-02-01T08:29:45.452Z,85.98
2023-02-01T08:34:44.902Z,86.25
2023-02-01T08:39:47.726Z,86.52
2023-02-01T08:44:50.877Z,85.57
2023-02-01T08:49:49.789Z,84.14
2023-02-01T08:56:09.596Z,83.01
2023-02-01T09:00:46.699Z,82.47
2023-02-01T09:05:49.683Z,81.00
2023-02-01T09:10:50.719Z,80.50
2023-02-01T09:15:49.483Z,81.65
2023-02-01T09:20:50.394Z,78.61
2023-02-01T09:25:54.999Z,79.14
2023-02-01T09:30:58.020Z,77.08
2023-02-01T09:36:01.264Z,76.80
2023-02-01T09:41:01.837Z,74.77
2023-02-01T09:51:33.557Z,71.53
2023-02-01T09:56:42.285Z,72.33
2023-02-01T10:01:41.386Z,73.01
2023-02-01T10:07:04.594Z,72.94
2023-02-01T10:12:54.552Z,71.74
2023-02-01T10:18:09.945Z,72.41
2023-02-01T10:23:33.235Z,73.30
2023-02-01T10:28:39.599Z,73.21
2023-02-01T10:33:49.999Z,71.55
2023-02-01T10:39:15.773Z,72.02
2023-02-01T10:44:19.162Z,71.13
2023-02-01T10:49:22.076Z,70.10
2023-02-01T10:54:23.512Z,69.99
2023-02-01T10:59:30.105Z,71.23
2023-02-01T11:04:29.161Z,69.49
2023-02-01T11:09:28.243Z,68.28
2023-02-01T11:14:39.518Z,66.56
2023-02-01T11:19:39.767Z,67.88
2023-02-01T11:24:40.251Z,67.83
2023-02-01T11:29:44.589Z,67.60
2023-02-01T11:34:48.864Z,67.13
2023-02-01T11:39:57.017Z,68.91
2023-02-01T11:45:21.469Z,68.57
2023-02-01T11:50:25.879Z,68.13
2023-02-01T11:55:49.790Z,67.00
2023-02-01T12:01:03.965Z,67.53
2023-02-01T12:06:08.330Z,67.28
2023-02-01T12:11:36.549Z,68.54
2023-02-01T12:16:48.584Z,67.94
2023-02-01T12:22:20.737Z,66.54
2023-02-01T12:33:24.915Z,64.21
2023-02-01T12:38:47.435Z,63.53
2023-02-01T12:43:56.113Z,62.38
2023-02-01T12:49:02.392Z,63.57
2023-02-01T12:54:07.182Z,61.45
2023-02-01T12:59:17.986Z,59.53
2023-02-01T13:04:23.529Z,57.86
2023-02-01T13:09:28.972Z,57.42
2023-02-01T13:14:36.081Z,56.80
2023-02-01T13:19:44.594Z,53.80
2023-02-01T13:24:58.393Z,54.17
2023-02-01T13:30:01.467Z,53.94
2023-02-01T13:35:27.394Z,52.19
2023-02-01T13:40:43.086Z,51.51
2023-02-01T13:45:55.206Z,51.27
2023-02-01T13:51:02.788Z,52.03
2023-02-01T13:56:12.396Z,52.31
2023-02-01T14:01:40.543Z,50.68
2023-02-01T14:06:57.562Z,51.03
2023-02-01T14:12:11.093Z,50.84
2023-02-01T14:17:40.337Z,51.72
2023-02-01T14:22:42.559Z,51.34
2023-02-01T14:27:47.679Z,51.88
2023-02-01T14:32:48.255Z,51.11
2023-02-01T14:38:01.114Z,52.41
2023-02-01T14:43:00.745Z,51.97
2023-02-01T14:48:45.861Z,51.98
2023-02-01T14:53:49.208Z,51.76
2023-02-01T14:59:06.576Z,52.99
2023-02-01T15:04:14.607Z,53.14
2023-02-01T15:09:22.873Z,54.25
2023-02-01T15:19:41.755Z,56.14
2023-02-01T15:24:55.256Z,56.58
2023-02-01T15:29:54.648Z,57.94
2023-02-01T15:34:56.110Z,59.36
2023-02-01T15:40:23.337Z,59.84
2023-02-01T15:45:25.525Z,60.87
2023-02-01T15:50:29.388Z,61.19
2023-02-01T15:55:38.011Z,61.26
2023-02-01T16:00:46.297Z,61.55
2023-02-01T16:05:48.021Z,62.75
2023-02-01T16:10:50.856Z,64.27
2023-02-01T16:15:54.022Z,64.75
2023-02-01T16:20:53.366Z,64.72
2023-02-01T16:25:59.477Z,65.96
2023-02-01T16:31:02.435Z,65.67
2023-02-01T16:36:03.327Z,66.28
2023-02-01T16:41:04.024Z,65.41
2023-02-01T16:46:09.821Z,65.64
2023-02-01T16:51:13.421Z,65.82
2023-02-01T16:56:18.483Z,66.13
2023-02-01T17:01:21.876Z,65.85
2023-02-01T17:06:23.012Z,66.20
2023-02-01T17:11:25.855Z,65.96
2023-02-01T17:16:29.199Z,65.63
2023-02-01T17:21:31.491Z,65.90
2023-02-01T17:26:34.627Z,65.43
2023-02-01T17:31:35.997Z,66.17
2023-02-01T17:36:40.057Z,65.82
2023-02-01T17:41:43.645Z,65.52
2023-02-01T17:46:42.457Z,65.76
2023-02-01T17:51:43.923Z,65.79
2023-02-01T17:56:45.647Z,66.23
2023-02-01T18:01:46.545Z,65.52
2023-02-01T18:06:46.218Z,65.42
2023-02-01T18:11:49.876Z,65.74
2023-02-01T18:16:49.358Z,66.03
2023-02-01T18:21:49.802Z,66.65
2023-02-01T18:26:52.766Z,66.06
2023-02-01T18:31:52.575Z,65.00
2023-02-01T18:36:53.203Z,64.50
2023-02-01T18:41:54.607Z,64.86
2023-02-01T18:46:54.703Z,65.18
2023-02-01T18:51:55.568Z,66.73
2023-02-01T18:56:57.624Z,65.99
2023-02-01T19:01:57.991Z,66.10
2023-02-01T19:06:59.789Z,66.97
2023-02-01T19:12:00.992Z,68.02
2023-02-01T19:17:00.809Z,66.72
2023-02-01T19:22:00.085Z,66.77
2023-02-01T19:27:00.751Z,66.44
2023-02-01T19:32:00.323Z,67.86
2023-02-01T19:36:59.626Z,68.03
2023-02-01T19:42:02.238Z,67.14
2023-02-01T19:47:03.928Z,67.44
2023-02-01T19:52:03.635Z,67.17
2023-02-01T19:57:03.958Z,66.97
2023-02-01T20:02:02.533Z,67.27
2023-02-01T20:14:37.429Z,67.33
2023-02-01T20:19:38.819Z,68.81
2023-02-01T20:24:44.821Z,68.81
2023-02-01T20:29:44.982Z,69.45
2023-02-01T20:34:45.435Z,69.89
2023-02-01T20:39:44.548Z,69.99
2023-02-01T20:44:43.436Z,70.28
2023-02-01T20:49:42.544Z,70.60
2023-02-01T20:54:43.302Z,70.14
2023-02-01T20:59:42.186Z,69.29
2023-02-01T21:04:41.108Z,68.15
2023-02-01T21:09:41.684Z,68.14
2023-02-01T21:14:41.984Z,68.72
2023-02-01T21:19:44.422Z,68.48
2023-02-01T21:24:44.340Z,68.92
2023-02-01T21:29:44.786Z,69.23
2023-02-01T21:34:43.728Z,68.14
2023-02-01T21:39:42.655Z,67.88
2023-02-01T21:44:41.867Z,67.97
2023-02-01T21:49:42.313Z,68.44
2023-02-01T21:54:41.684Z,68.18
2023-02-01T21:59:41.350Z,68.33
2023-02-01T22:04:41.881Z,68.37
2023-02-01T22:09:40.721Z,67.22
2023-02-01T22:14:40.606Z,67.23
2023-02-01T22:19:39.484Z,69.19
2023-02-01T22:24:39.901Z,68.36
2023-02-01T22:29:38.769Z,68.44
2023-02-01T22:34:37.900Z,68.58
2023-02-01T22:39:36.768Z,67.65
2023-02-01T22:44:37.102Z,68.83
2023-02-01T22:49:36.063Z,68.58
2023-02-01T22:54:35.142Z,69.30
2023-02-01T22:59:34.189Z,69.65
2023-02-01T23:04:34.601Z,69.70
2023-02-01T23:09:33.473Z,70.51
2023-02-01T23:14:32.257Z,69.27
2023-02-01T23:19:31.126Z,70.38
2023-02-01T23:24:31.403Z,70.77
2023-02-01T23:29:30.451Z,69.80
2023-02-01T23:34:29.409Z,69.47
2023-02-01T23:39:28.943Z,69.19
2023-02-01T23:44:29.213Z,67.80
2023-02-01T23:49:28.545Z,68.05
2023-02-01T23:54:27.345Z,67.08
2023-02-01T23:59:28.317Z,66.71
